EHKD/DHR METAR and TAF weather

Enter ICAO airport designator
Station Type Date Time Source
EHKD METAR 2020/07/10 20:09 UTC NOAA

EHKD 102009Z AUTO 31004KT 280V340 9999 FEW023 SCT026 BKN030 14/10 Q1019 BLU


Station Type Date Time Source
EHKD Decoded METAR 2020/07/10 20:09 UTC NOAA

De Kooy, Netherlands (EHKD) 52-55N 004-47E 14M
Jul 10, 2020 - 04:09 PM EDT / 2020.07.10 2009 UTC
Wind: from the NW (310 degrees) at 5 MPH (4 KT) (direction variable):0
Visibility: greater than 7 mile(s):0
Sky conditions: mostly cloudy
Temperature: 57 F (14 C)
Dew Point: 50 F (10 C)
Relative Humidity: 76%
Pressure (altimeter): 30.09 in. Hg (1019 hPa)
ob: EHKD 102009Z AUTO 31004KT 280V340 9999 FEW023 SCT026 BKN030 14/10 Q1019 BLU
cycle: 20

Station Type Date Time Source
EHKD TAF 2020/07/10 13:06 UTC NOAA

TAF TAF EHKD 101218Z 1013/1101 32008KT 9999 FEW020 BKN110 PROB30
TEMPO 1013/1017 34010G20KT FEW018 SCT020CB BKN030
BECMG 1018/1021 31005KT

Example: see airport list